sensor_id;sensor_type;location;lat;lon;timestamp;pressure;altitude;pressure_sealevel;temperature;humidity
31357;BME280;60001;48.404;11.738;2023-05-11T00:00:25;96088.19;;;11.82;85.07
31357;BME280;60001;48.404;11.738;2023-05-11T00:01:57;96090.31;;;11.90;85.17
31357;BME280;60001;48.404;11.738;2023-05-11T00:03:30;96074.41;;;11.70;86.00
31357;BME280;60001;48.404;11.738;2023-05-11T00:05:02;96083.72;;;11.83;85.89
31357;BME280;60001;48.404;11.738;2023-05-11T00:06:34;96080.22;;;11.72;85.97
31357;BME280;60001;48.404;11.738;2023-05-11T00:08:05;96078.94;;;11.85;86.57
31357;BME280;60001;48.404;11.738;2023-05-11T00:09:36;96074.16;;;11.87;85.44
31357;BME280;60001;48.404;11.738;2023-05-11T00:11:08;96061.44;;;11.58;85.38
31357;BME280;60001;48.404;11.738;2023-05-11T00:12:41;96076.50;;;11.47;86.63
31357;BME280;60001;48.404;11.738;2023-05-11T00:14:13;96069.63;;;11.57;87.28
31357;BME280;60001;48.404;11.738;2023-05-11T00:15:45;96069.38;;;11.68;86.85
31357;BME280;60001;48.404;11.738;2023-05-11T00:17:16;96072.56;;;11.70;86.79
31357;BME280;60001;48.404;11.738;2023-05-11T00:18:49;96066.75;;;11.68;87.17
31357;BME280;60001;48.404;11.738;2023-05-11T00:20:21;96075.47;;;11.64;86.60
31357;BME280;60001;48.404;11.738;2023-05-11T00:21:53;96073.06;;;11.57;86.73
31357;BME280;60001;48.404;11.738;2023-05-11T00:23:24;96065.66;;;11.64;86.08
31357;BME280;60001;48.404;11.738;2023-05-11T00:24:55;96063.53;;;11.61;86.65
31357;BME280;60001;48.404;11.738;2023-05-11T00:26:26;96073.88;;;11.78;86.28
31357;BME280;60001;48.404;11.738;2023-05-11T00:27:59;96067.00;;;11.57;87.20
31357;BME280;60001;48.404;11.738;2023-05-11T00:29:30;96065.66;;;11.54;87.15
31357;BME280;60001;48.404;11.738;2023-05-11T00:31:02;96063.56;;;11.71;86.63
31357;BME280;60001;48.404;11.738;2023-05-11T00:32:33;96067.53;;;11.79;86.96
31357;BME280;60001;48.404;11.738;2023-05-11T00:34:06;96065.44;;;11.81;86.53
31357;BME280;60001;48.404;11.738;2023-05-11T00:35:37;96066.50;;;11.85;86.45
31357;BME280;60001;48.404;11.738;2023-05-11T00:37:08;96063.59;;;11.87;86.39
31357;BME280;60001;48.404;11.738;2023-05-11T00:38:40;96063.03;;;11.74;85.88
31357;BME280;60001;48.404;11.738;2023-05-11T00:40:12;96048.22;;;11.58;86.59
31357;BME280;60001;48.404;11.738;2023-05-11T00:41:43;96053.78;;;11.77;86.89
31357;BME280;60001;48.404;11.738;2023-05-11T00:43:16;96049.00;;;11.79;86.92
31357;BME280;60001;48.404;11.738;2023-05-11T00:44:48;96051.94;;;11.77;86.69
31357;BME280;60001;48.404;11.738;2023-05-11T00:46:20;96013.06;;;11.63;86.89
31357;BME280;60001;48.404;11.738;2023-05-11T00:47:52;96045.31;;;11.80;87.34
31357;BME280;60001;48.404;11.738;2023-05-11T00:49:22;96050.63;;;11.85;87.15
31357;BME280;60001;48.404;11.738;2023-05-11T00:50:54;96048.22;;;11.68;86.84
31357;BME280;60001;48.404;11.738;2023-05-11T00:52:26;96046.38;;;11.79;86.98
31357;BME280;60001;48.404;11.738;2023-05-11T00:53:57;96054.59;;;11.88;86.88
31357;BME280;60001;48.404;11.738;2023-05-11T00:55:30;96046.09;;;11.70;85.88
31357;BME280;60001;48.404;11.738;2023-05-11T00:57:02;96046.38;;;11.64;86.91
31357;BME280;60001;48.404;11.738;2023-05-11T00:58:34;96046.09;;;11.60;87.35
31357;BME280;60001;48.404;11.738;2023-05-11T01:00:07;96054.03;;;11.65;87.54
31357;BME280;60001;48.404;11.738;2023-05-11T01:01:39;96045.84;;;11.72;87.68
31357;BME280;60001;48.404;11.738;2023-05-11T01:03:11;96028.66;;;11.69;87.60
31357;BME280;60001;48.404;11.738;2023-05-11T01:04:44;96035.81;;;11.84;86.88
31357;BME280;60001;48.404;11.738;2023-05-11T01:06:24;96040.84;;;11.86;86.85
31357;BME280;60001;48.404;11.738;2023-05-11T01:08:04;96034.72;;;11.70;86.58
31357;BME280;60001;48.404;11.738;2023-05-11T01:09:45;96041.63;;;11.81;86.80
31357;BME280;60001;48.404;11.738;2023-05-11T01:11:27;96038.75;;;11.83;87.58
31357;BME280;60001;48.404;11.738;2023-05-11T01:13:09;96031.31;;;11.69;87.39
31357;BME280;60001;48.404;11.738;2023-05-11T01:15:00;96041.63;;;11.76;86.47
31357;BME280;60001;48.404;11.738;2023-05-11T01:16:38;96040.28;;;11.73;87.47
31357;BME280;60001;48.404;11.738;2023-05-11T01:18:18;96042.13;;;11.78;87.28
31357;BME280;60001;48.404;11.738;2023-05-11T01:19:57;96043.47;;;11.75;88.41
31357;BME280;60001;48.404;11.738;2023-05-11T01:21:34;96003.78;;;11.50;87.05
31357;BME280;60001;48.404;11.738;2023-05-11T01:23:42;96035.53;;;11.80;86.86
31357;BME280;60001;48.404;11.738;2023-05-11T01:25:31;96036.09;;;11.83;88.00
31357;BME280;60001;48.404;11.738;2023-05-11T01:27:31;96037.63;;;11.78;87.72
31357;BME280;60001;48.404;11.738;2023-05-11T01:31:19;96033.19;;;11.84;87.33
31357;BME280;60001;48.404;11.738;2023-05-11T01:32:53;96033.69;;;11.86;86.99
31357;BME280;60001;48.404;11.738;2023-05-11T01:34:30;96028.94;;;11.83;86.80
31357;BME280;60001;48.404;11.738;2023-05-11T01:36:07;96031.03;;;11.81;86.63
31357;BME280;60001;48.404;11.738;2023-05-11T01:37:46;96028.13;;;11.77;87.93
31357;BME280;60001;48.404;11.738;2023-05-11T01:39:25;96031.31;;;11.69;87.68
31357;BME280;60001;48.404;11.738;2023-05-11T01:41:00;96030.25;;;11.70;87.26
31357;BME280;60001;48.404;11.738;2023-05-11T01:42:39;96033.41;;;11.62;87.09
31357;BME280;60001;48.404;11.738;2023-05-11T01:44:13;96030.75;;;11.72;87.61
31357;BME280;60001;48.404;11.738;2023-05-11T01:45:52;96017.81;;;11.56;86.35
31357;BME280;60001;48.404;11.738;2023-05-11T01:47:28;96013.84;;;11.48;87.56
31357;BME280;60001;48.404;11.738;2023-05-11T01:49:04;96039.22;;;11.64;87.73
31357;BME280;60001;48.404;11.738;2023-05-11T01:50:38;96034.19;;;11.68;87.58
31357;BME280;60001;48.404;11.738;2023-05-11T01:52:11;96040.25;;;11.53;87.16
31357;BME280;60001;48.404;11.738;2023-05-11T01:53:45;96031.81;;;11.51;87.58
31357;BME280;60001;48.404;11.738;2023-05-11T01:55:21;96035.78;;;11.53;87.82
31357;BME280;60001;48.404;11.738;2023-05-11T01:56:55;96026.00;;;11.59;88.32
31357;BME280;60001;48.404;11.738;2023-05-11T01:58:29;96031.03;;;11.66;88.05
31357;BME280;60001;48.404;11.738;2023-05-11T02:00:00;96040.81;;;11.55;88.24
31357;BME280;60001;48.404;11.738;2023-05-11T02:01:34;96020.19;;;11.57;88.34
31357;BME280;60001;48.404;11.738;2023-05-11T02:03:09;96034.97;;;11.73;88.13
31357;BME280;60001;48.404;11.738;2023-05-11T02:04:43;96036.59;;;11.64;86.66
31357;BME280;60001;48.404;11.738;2023-05-11T02:06:18;96036.84;;;11.58;87.83
31357;BME280;60001;48.404;11.738;2023-05-11T02:07:50;96029.69;;;11.43;87.59
31357;BME280;60001;48.404;11.738;2023-05-11T02:09:23;96037.63;;;11.38;88.30
31357;BME280;60001;48.404;11.738;2023-05-11T02:10:58;96027.56;;;11.45;89.10
31357;BME280;60001;48.404;11.738;2023-05-11T02:12:31;96026.81;;;11.55;88.28
31357;BME280;60001;48.404;11.738;2023-05-11T02:14:08;96033.91;;;11.54;88.93
31357;BME280;60001;48.404;11.738;2023-05-11T02:15:42;96034.47;;;11.56;88.35
31357;BME280;60001;48.404;11.738;2023-05-11T02:17:17;96015.16;;;11.61;88.30
31357;BME280;60001;48.404;11.738;2023-05-11T02:18:53;96033.66;;;11.66;87.92
31357;BME280;60001;48.404;11.738;2023-05-11T02:20:26;96029.97;;;11.62;88.06
31357;BME280;60001;48.404;11.738;2023-05-11T02:21:59;96028.63;;;11.59;88.55
31357;BME280;60001;48.404;11.738;2023-05-11T02:23:32;96025.47;;;11.67;88.41
31357;BME280;60001;48.404;11.738;2023-05-11T02:25:05;96020.19;;;11.62;88.71
31357;BME280;60001;48.404;11.738;2023-05-11T02:26:37;96031.56;;;11.73;87.71
31357;BME280;60001;48.404;11.738;2023-05-11T02:28:09;96032.88;;;11.75;87.36
31357;BME280;60001;48.404;11.738;2023-05-11T02:29:40;96028.13;;;11.77;87.61
31357;BME280;60001;48.404;11.738;2023-05-11T02:31:16;96013.31;;;11.66;88.52
31357;BME280;60001;48.404;11.738;2023-05-11T02:32:51;96027.84;;;11.79;88.02
31357;BME280;60001;48.404;11.738;2023-05-11T02:34:28;96024.69;;;11.72;88.27
31357;BME280;60001;48.404;11.738;2023-05-11T02:36:05;96014.63;;;11.69;87.78
31357;BME280;60001;48.404;11.738;2023-05-11T02:37:41;96015.16;;;11.50;88.14
31357;BME280;60001;48.404;11.738;2023-05-11T02:39:17;96021.78;;;11.63;87.54
31357;BME280;60001;48.404;11.738;2023-05-11T02:40:57;96024.13;;;11.75;87.85
31357;BME280;60001;48.404;11.738;2023-05-11T02:42:37;96024.41;;;11.73;87.39
31357;BME280;60001;48.404;11.738;2023-05-11T02:44:13;96013.81;;;11.73;87.15
31357;BME280;60001;48.404;11.738;2023-05-11T02:45:47;96016.75;;;11.77;86.85
31357;BME280;60001;48.404;11.738;2023-05-11T02:47:21;96019.91;;;11.79;87.71
31357;BME280;60001;48.404;11.738;2023-05-11T02:49:01;96010.13;;;11.54;87.79
31357;BME280;60001;48.404;11.738;2023-05-11T02:50:38;96015.16;;;11.66;87.69
31357;BME280;60001;48.404;11.738;2023-05-11T02:52:14;96004.84;;;11.64;87.88
31357;BME280;60001;48.404;11.738;2023-05-11T02:53:48;96015.69;;;11.73;87.79
31357;BME280;60001;48.404;11.738;2023-05-11T02:55:22;96006.69;;;11.59;87.72
31357;BME280;60001;48.404;11.738;2023-05-11T02:56:55;96011.97;;;11.59;87.17
31357;BME280;60001;48.404;11.738;2023-05-11T02:58:27;96009.59;;;11.57;87.11
31357;BME280;60001;48.404;11.738;2023-05-11T03:00:00;96008.28;;;11.60;87.80
31357;BME280;60001;48.404;11.738;2023-05-11T03:01:34;96015.97;;;11.56;88.44
31357;BME280;60001;48.404;11.738;2023-05-11T03:03:06;96011.44;;;11.67;87.37
31357;BME280;60001;48.404;11.738;2023-05-11T03:04:38;96002.97;;;11.60;87.39
31357;BME280;60001;48.404;11.738;2023-05-11T03:06:12;96012.78;;;11.64;87.39
31357;BME280;60001;48.404;11.738;2023-05-11T03:07:44;96015.44;;;11.69;87.66
31357;BME280;60001;48.404;11.738;2023-05-11T03:09:16;96007.50;;;11.49;87.25
31357;BME280;60001;48.404;11.738;2023-05-11T03:10:49;96010.41;;;11.63;87.07
31357;BME280;60001;48.404;11.738;2023-05-11T03:12:22;95986.88;;;11.56;86.45
31357;BME280;60001;48.404;11.738;2023-05-11T03:13:53;96009.88;;;11.66;87.15
31357;BME280;60001;48.404;11.738;2023-05-11T03:15:27;96006.69;;;11.64;87.55
31357;BME280;60001;48.404;11.738;2023-05-11T03:16:59;96013.03;;;11.68;86.75
31357;BME280;60001;48.404;11.738;2023-05-11T03:18:32;96017.00;;;11.70;87.28
31357;BME280;60001;48.404;11.738;2023-05-11T03:20:06;96011.22;;;11.68;87.46
31357;BME280;60001;48.404;11.738;2023-05-11T03:21:40;96006.72;;;11.69;86.76
31357;BME280;60001;48.404;11.738;2023-05-11T03:23:15;96005.91;;;11.68;85.93
31357;BME280;60001;48.404;11.738;2023-05-11T03:24:49;96011.72;;;11.65;86.18
31357;BME280;60001;48.404;11.738;2023-05-11T03:26:22;96000.09;;;11.56;86.55
31357;BME280;60001;48.404;11.738;2023-05-11T03:27:58;96006.94;;;11.72;87.11
31357;BME280;60001;48.404;11.738;2023-05-11T03:29:32;95995.31;;;11.63;86.35
31357;BME280;60001;48.404;11.738;2023-05-11T03:31:07;96007.75;;;11.73;86.22
31357;BME280;60001;48.404;11.738;2023-05-11T03:32:39;96003.25;;;11.63;86.74
31357;BME280;60001;48.404;11.738;2023-05-11T03:34:11;96010.94;;;11.65;87.14
31357;BME280;60001;48.404;11.738;2023-05-11T03:35:46;96005.91;;;11.48;86.55
31357;BME280;60001;48.404;11.738;2023-05-11T03:37:20;96007.22;;;11.50;87.46
31357;BME280;60001;48.404;11.738;2023-05-11T03:38:53;96006.19;;;11.62;86.81
31357;BME280;60001;48.404;11.738;2023-05-11T03:40:27;96009.34;;;11.69;86.50
31357;BME280;60001;48.404;11.738;2023-05-11T03:42:03;96007.22;;;11.71;85.86
31357;BME280;60001;48.404;11.738;2023-05-11T03:43:37;95989.78;;;11.49;86.71
31357;BME280;60001;48.404;11.738;2023-05-11T03:45:13;96007.22;;;11.56;85.70
31357;BME280;60001;48.404;11.738;2023-05-11T03:46:49;95985.78;;;11.32;86.52
31357;BME280;60001;48.404;11.738;2023-05-11T03:48:21;95990.28;;;11.31;87.71
31357;BME280;60001;48.404;11.738;2023-05-11T03:49:54;96003.50;;;11.46;87.03
31357;BME280;60001;48.404;11.738;2023-05-11T03:51:26;95995.59;;;11.51;87.27
31357;BME280;60001;48.404;11.738;2023-05-11T03:53:04;95996.91;;;11.54;86.34
31357;BME280;60001;48.404;11.738;2023-05-11T03:54:36;96004.84;;;11.59;86.60
31357;BME280;60001;48.404;11.738;2023-05-11T03:56:08;95999.81;;;11.58;87.05
31357;BME280;60001;48.404;11.738;2023-05-11T03:57:40;95992.66;;;11.53;87.89
31357;BME280;60001;48.404;11.738;2023-05-11T03:59:14;95997.19;;;11.58;87.01
31357;BME280;60001;48.404;11.738;2023-05-11T04:00:47;95992.41;;;11.60;87.72
31357;BME280;60001;48.404;11.738;2023-05-11T04:02:19;95997.44;;;11.61;87.66
31357;BME280;60001;48.404;11.738;2023-05-11T04:03:53;95993.47;;;11.33;86.70
31357;BME280;60001;48.404;11.738;2023-05-11T04:05:25;95997.72;;;11.55;86.96
31357;BME280;60001;48.404;11.738;2023-05-11T04:06:57;95992.69;;;11.58;86.95
31357;BME280;60001;48.404;11.738;2023-05-11T04:08:31;95982.09;;;11.53;86.90
31357;BME280;60001;48.404;11.738;2023-05-11T04:10:03;95986.09;;;11.56;86.98
31357;BME280;60001;48.404;11.738;2023-05-11T04:11:36;95992.16;;;11.56;87.20
31357;BME280;60001;48.404;11.738;2023-05-11T04:13:08;95991.34;;;11.61;87.29
31357;BME280;60001;48.404;11.738;2023-05-11T04:14:39;95975.22;;;11.57;86.38
31357;BME280;60001;48.404;11.738;2023-05-11T04:16:11;95993.47;;;11.43;85.80
31357;BME280;60001;48.404;11.738;2023-05-11T04:17:43;95974.19;;;11.43;86.19
31357;BME280;60001;48.404;11.738;2023-05-11T04:19:15;95986.59;;;11.32;86.87
31357;BME280;60001;48.404;11.738;2023-05-11T04:20:46;95974.69;;;11.30;87.49
31357;BME280;60001;48.404;11.738;2023-05-11T04:22:17;95984.47;;;11.24;87.46
31357;BME280;60001;48.404;11.738;2023-05-11T04:23:50;95974.69;;;11.19;87.36
31357;BME280;60001;48.404;11.738;2023-05-11T04:25:22;95987.91;;;11.24;88.81
31357;BME280;60001;48.404;11.738;2023-05-11T04:26:57;95985.28;;;11.45;87.69
31357;BME280;60001;48.404;11.738;2023-05-11T04:28:29;95983.94;;;11.52;87.34
31357;BME280;60001;48.404;11.738;2023-05-11T04:29:59;95986.59;;;11.52;87.70
31357;BME280;60001;48.404;11.738;2023-05-11T04:31:31;95983.16;;;11.62;87.67
31357;BME280;60001;48.404;11.738;2023-05-11T04:33:03;95989.22;;;11.32;86.54
31357;BME280;60001;48.404;11.738;2023-05-11T04:34:35;95993.75;;;11.27;87.50
31357;BME280;60001;48.404;11.738;2023-05-11T04:36:07;95987.41;;;11.43;87.39
31357;BME280;60001;48.404;11.738;2023-05-11T04:37:39;95994.25;;;11.54;87.27
31357;BME280;60001;48.404;11.738;2023-05-11T04:39:12;95985.53;;;11.28;85.96
31357;BME280;60001;48.404;11.738;2023-05-11T04:40:43;95978.16;;;11.35;87.46
31357;BME280;60001;48.404;11.738;2023-05-11T04:42:16;95971.00;;;11.31;87.60
31357;BME280;60001;48.404;11.738;2023-05-11T04:43:48;95990.03;;;11.28;87.32
31357;BME280;60001;48.404;11.738;2023-05-11T04:45:18;95977.34;;;11.24;87.79
31357;BME280;60001;48.404;11.738;2023-05-11T04:46:53;95991.38;;;11.50;87.92
31357;BME280;60001;48.404;11.738;2023-05-11T04:48:25;95987.66;;;11.46;87.13
31357;BME280;60001;48.404;11.738;2023-05-11T04:49:57;95994.00;;;11.50;86.69
31357;BME280;60001;48.404;11.738;2023-05-11T04:51:28;95991.63;;;11.49;87.27
31357;BME280;60001;48.404;11.738;2023-05-11T04:53:00;95987.38;;;11.53;87.08
31357;BME280;60001;48.404;11.738;2023-05-11T04:54:33;95986.06;;;11.40;87.01
31357;BME280;60001;48.404;11.738;2023-05-11T04:56:06;95992.69;;;11.43;87.94
31357;BME280;60001;48.404;11.738;2023-05-11T04:57:37;95989.00;;;11.49;87.92
31357;BME280;60001;48.404;11.738;2023-05-11T04:59:09;95995.31;;;11.58;88.41
31357;BME280;60001;48.404;11.738;2023-05-11T05:00:41;95999.28;;;11.66;87.84
31357;BME280;60001;48.404;11.738;2023-05-11T05:02:11;95996.13;;;11.64;86.80
31357;BME280;60001;48.404;11.738;2023-05-11T05:03:47;95994.78;;;11.66;87.37
31357;BME280;60001;48.404;11.738;2023-05-11T05:05:18;95998.22;;;11.67;87.13
31357;BME280;60001;48.404;11.738;2023-05-11T05:06:49;96002.22;;;11.69;86.78
31357;BME280;60001;48.404;11.738;2023-05-11T05:08:21;95994.28;;;11.69;87.42
31357;BME280;60001;48.404;11.738;2023-05-11T05:09:54;95998.75;;;11.74;87.88
31357;BME280;60001;48.404;11.738;2023-05-11T05:11:26;96006.94;;;11.72;87.83
31357;BME280;60001;48.404;11.738;2023-05-11T05:12:57;95983.41;;;11.66;87.44
31357;BME280;60001;48.404;11.738;2023-05-11T05:14:28;95993.72;;;11.77;87.36
31357;BME280;60001;48.404;11.738;2023-05-11T05:15:59;96003.53;;;11.77;88.06
31357;BME280;60001;48.404;11.738;2023-05-11T05:17:31;96005.94;;;11.84;87.77
31357;BME280;60001;48.404;11.738;2023-05-11T05:19:03;95992.66;;;11.78;87.85
31357;BME280;60001;48.404;11.738;2023-05-11T05:20:33;96001.69;;;11.88;88.34
31357;BME280;60001;48.404;11.738;2023-05-11T05:22:05;96010.13;;;11.95;87.04
31357;BME280;60001;48.404;11.738;2023-05-11T05:23:37;96004.03;;;11.94;87.32
31357;BME280;60001;48.404;11.738;2023-05-11T05:25:10;96006.97;;;11.77;86.46
31357;BME280;60001;48.404;11.738;2023-05-11T05:26:42;95998.50;;;11.50;87.28
31357;BME280;60001;48.404;11.738;2023-05-11T05:28:14;96005.13;;;11.63;88.70
31357;BME280;60001;48.404;11.738;2023-05-11T05:29:45;96008.56;;;11.68;88.42
31357;BME280;60001;48.404;11.738;2023-05-11T05:31:16;95998.50;;;11.65;87.87
31357;BME280;60001;48.404;11.738;2023-05-11T05:32:48;96005.63;;;11.80;87.98
31357;BME280;60001;48.404;11.738;2023-05-11T05:34:20;96012.53;;;11.76;87.68
31357;BME280;60001;48.404;11.738;2023-05-11T05:35:51;96009.88;;;11.71;86.74
31357;BME280;60001;48.404;11.738;2023-05-11T05:37:23;96014.09;;;11.67;86.91
31357;BME280;60001;48.404;11.738;2023-05-11T05:38:55;96009.31;;;11.74;88.00
31357;BME280;60001;48.404;11.738;2023-05-11T05:40:28;96000.09;;;11.71;88.08
31357;BME280;60001;48.404;11.738;2023-05-11T05:42:00;96013.31;;;11.82;87.95
31357;BME280;60001;48.404;11.738;2023-05-11T05:43:32;96012.53;;;11.81;88.02
31357;BME280;60001;48.404;11.738;2023-05-11T05:45:05;96021.25;;;11.82;87.15
31357;BME280;60001;48.404;11.738;2023-05-11T05:46:36;96014.91;;;11.77;87.44
31357;BME280;60001;48.404;11.738;2023-05-11T05:48:08;96011.44;;;11.72;88.40
31357;BME280;60001;48.404;11.738;2023-05-11T05:49:40;96006.16;;;11.67;87.99
31357;BME280;60001;48.404;11.738;2023-05-11T05:51:12;96006.44;;;11.75;88.47
31357;BME280;60001;48.404;11.738;2023-05-11T05:52:44;96015.44;;;11.85;88.51
31357;BME280;60001;48.404;11.738;2023-05-11T05:54:15;96014.09;;;11.87;88.15
31357;BME280;60001;48.404;11.738;2023-05-11T05:55:48;96017.03;;;11.91;87.43
31357;BME280;60001;48.404;11.738;2023-05-11T05:57:20;96016.75;;;11.92;87.42
31357;BME280;60001;48.404;11.738;2023-05-11T05:58:52;96024.19;;;11.85;87.65
31357;BME280;60001;48.404;11.738;2023-05-11T06:00:25;96018.34;;;11.88;88.09
31357;BME280;60001;48.404;11.738;2023-05-11T06:01:56;96016.47;;;11.89;88.90
31357;BME280;60001;48.404;11.738;2023-05-11T06:03:28;96015.44;;;11.90;88.92
31357;BME280;60001;48.404;11.738;2023-05-11T06:05:00;96019.94;;;11.89;87.73
31357;BME280;60001;48.404;11.738;2023-05-11T06:06:32;96021.22;;;12.02;87.66
31357;BME280;60001;48.404;11.738;2023-05-11T06:08:04;96027.59;;;12.06;87.07
31357;BME280;60001;48.404;11.738;2023-05-11T06:09:35;96024.66;;;12.13;86.99
31357;BME280;60001;48.404;11.738;2023-05-11T06:11:08;96023.59;;;12.14;87.59
31357;BME280;60001;48.404;11.738;2023-05-11T06:12:40;96020.44;;;12.12;88.01
31357;BME280;60001;48.404;11.738;2023-05-11T06:14:12;96029.69;;;12.14;87.41
31357;BME280;60001;48.404;11.738;2023-05-11T06:15:43;96022.81;;;12.13;87.44
31357;BME280;60001;48.404;11.738;2023-05-11T06:17:15;96026.78;;;12.00;86.01
31357;BME280;60001;48.404;11.738;2023-05-11T06:18:47;96029.72;;;11.89;86.19
31357;BME280;60001;48.404;11.738;2023-05-11T06:20:19;96027.59;;;11.80;87.03
31357;BME280;60001;48.404;11.738;2023-05-11T06:21:51;96028.69;;;11.85;87.49
31357;BME280;60001;48.404;11.738;2023-05-11T06:23:22;96025.25;;;11.89;86.98
31357;BME280;60001;48.404;11.738;2023-05-11T06:24:54;96020.19;;;11.88;86.90
31357;BME280;60001;48.404;11.738;2023-05-11T06:26:28;96025.25;;;11.89;87.09
31357;BME280;60001;48.404;11.738;2023-05-11T06:28:00;96020.47;;;11.91;87.16
31357;BME280;60001;48.404;11.738;2023-05-11T06:29:32;96024.13;;;11.75;87.12
31357;BME280;60001;48.404;11.738;2023-05-11T06:31:04;96023.38;;;11.85;87.73
31357;BME280;60001;48.404;11.738;2023-05-11T06:32:36;96027.06;;;11.73;87.86
31357;BME280;60001;48.404;11.738;2023-05-11T06:34:07;96024.41;;;11.63;87.56
31357;BME280;60001;48.404;11.738;2023-05-11T06:35:39;96027.06;;;11.58;87.96
31357;BME280;60001;48.404;11.738;2023-05-11T06:37:13;96028.09;;;11.67;88.49
31357;BME280;60001;48.404;11.738;2023-05-11T06:38:52;96025.72;;;11.61;88.52
31357;BME280;60001;48.404;11.738;2023-05-11T06:40:24;96021.78;;;11.48;88.36
31357;BME280;60001;48.404;11.738;2023-05-11T06:41:57;96022.84;;;11.62;88.10
31357;BME280;60001;48.404;11.738;2023-05-11T06:43:29;96023.09;;;11.71;88.10
31357;BME280;60001;48.404;11.738;2023-05-11T06:45:01;96028.63;;;11.79;88.06
31357;BME280;60001;48.404;11.738;2023-05-11T06:46:32;96027.84;;;11.74;88.17
31357;BME280;60001;48.404;11.738;2023-05-11T06:48:04;96027.84;;;11.74;88.13
31357;BME280;60001;48.404;11.738;2023-05-11T06:49:36;96029.19;;;11.56;88.08
31357;BME280;60001;48.404;11.738;2023-05-11T06:51:08;96023.34;;;11.59;88.57
31357;BME280;60001;48.404;11.738;2023-05-11T06:52:40;96032.88;;;11.70;88.40
31357;BME280;60001;48.404;11.738;2023-05-11T06:54:12;96024.94;;;11.70;88.40
31357;BME280;60001;48.404;11.738;2023-05-11T06:55:44;96032.88;;;11.75;88.29
31357;BME280;60001;48.404;11.738;2023-05-11T06:57:17;96029.72;;;11.68;87.71
31357;BME280;60001;48.404;11.738;2023-05-11T06:58:49;96029.72;;;11.63;87.35
31357;BME280;60001;48.404;11.738;2023-05-11T07:00:21;96028.38;;;11.66;88.89
31357;BME280;60001;48.404;11.738;2023-05-11T07:01:53;96021.78;;;11.68;89.53
31357;BME280;60001;48.404;11.738;2023-05-11T07:03:24;96024.94;;;11.55;88.13
31357;BME280;60001;48.404;11.738;2023-05-11T07:04:56;96028.91;;;11.63;89.16
31357;BME280;60001;48.404;11.738;2023-05-11T07:06:28;96026.78;;;11.75;88.63
31357;BME280;60001;48.404;11.738;2023-05-11T07:08:00;96026.81;;;11.70;88.67
31357;BME280;60001;48.404;11.738;2023-05-11T07:09:33;96018.06;;;11.64;89.65
31357;BME280;60001;48.404;11.738;2023-05-11T07:11:05;96024.69;;;11.77;89.34
31357;BME280;60001;48.404;11.738;2023-05-11T07:12:37;96033.94;;;11.79;89.61
31357;BME280;60001;48.404;11.738;2023-05-11T07:14:09;96027.63;;;11.86;89.30
31357;BME280;60001;48.404;11.738;2023-05-11T07:15:41;96027.63;;;11.86;89.34
31357;BME280;60001;48.404;11.738;2023-05-11T07:17:13;96003.78;;;11.75;88.76
31357;BME280;60001;48.404;11.738;2023-05-11T07:18:45;96030.00;;;11.92;88.72
31357;BME280;60001;48.404;11.738;2023-05-11T07:20:16;96022.59;;;11.84;88.88
31357;BME280;60001;48.404;11.738;2023-05-11T07:21:48;96036.06;;;11.93;89.22
31357;BME280;60001;48.404;11.738;2023-05-11T07:23:21;96040.31;;;11.94;88.91
31357;BME280;60001;48.404;11.738;2023-05-11T07:24:53;96026.78;;;11.80;88.76
31357;BME280;60001;48.404;11.738;2023-05-11T07:26:25;96033.41;;;11.88;87.93
31357;BME280;60001;48.404;11.738;2023-05-11T07:27:58;96014.38;;;11.80;88.03
31357;BME280;60001;48.404;11.738;2023-05-11T07:29:30;96025.75;;;11.91;88.65
31357;BME280;60001;48.404;11.738;2023-05-11T07:31:02;96026.78;;;11.80;88.70
31357;BME280;60001;48.404;11.738;2023-05-11T07:32:33;96033.97;;;11.85;88.80
31357;BME280;60001;48.404;11.738;2023-05-11T07:34:05;96028.13;;;11.77;88.39
31357;BME280;60001;48.404;11.738;2023-05-11T07:35:37;96032.38;;;11.84;89.18
31357;BME280;60001;48.404;11.738;2023-05-11T07:37:09;96029.47;;;11.90;88.21
31357;BME280;60001;48.404;11.738;2023-05-11T07:38:41;96029.75;;;11.84;88.09
31357;BME280;60001;48.404;11.738;2023-05-11T07:40:13;96035.78;;;11.74;88.17
31357;BME280;60001;48.404;11.738;2023-05-11T07:41:44;96036.34;;;11.81;88.98
31357;BME280;60001;48.404;11.738;2023-05-11T07:43:18;96035.28;;;11.87;88.79
31357;BME280;60001;48.404;11.738;2023-05-11T07:44:49;96035.78;;;11.79;89.87
31357;BME280;60001;48.404;11.738;2023-05-11T07:46:21;96032.91;;;11.86;89.12
31357;BME280;60001;48.404;11.738;2023-05-11T07:47:53;96035.56;;;11.91;88.42
31357;BME280;60001;48.404;11.738;2023-05-11T07:49:25;96032.34;;;11.94;88.00
31357;BME280;60001;48.404;11.738;2023-05-11T07:50:57;96032.91;;;11.80;88.38
31357;BME280;60001;48.404;11.738;2023-05-11T07:52:29;96033.13;;;11.79;89.18
31357;BME280;60001;48.404;11.738;2023-05-11T07:54:01;96037.91;;;11.87;88.19
31357;BME280;60001;48.404;11.738;2023-05-11T07:55:33;96035.28;;;11.92;89.03
31357;BME280;60001;48.404;11.738;2023-05-11T07:57:04;96023.63;;;11.88;88.08
31357;BME280;60001;48.404;11.738;2023-05-11T07:58:37;96031.56;;;11.88;87.69
31357;BME280;60001;48.404;11.738;2023-05-11T08:00:10;96018.88;;;11.55;88.68
31357;BME280;60001;48.404;11.738;2023-05-11T08:01:42;96036.59;;;11.69;89.47
31357;BME280;60001;48.404;11.738;2023-05-11T08:03:14;96037.38;;;11.55;89.66
31357;BME280;60001;48.404;11.738;2023-05-11T08:04:46;96033.66;;;11.61;89.70
31357;BME280;60001;48.404;11.738;2023-05-11T08:06:17;96036.06;;;11.62;89.71
31357;BME280;60001;48.404;11.738;2023-05-11T08:07:49;96025.97;;;11.54;90.48
31357;BME280;60001;48.404;11.738;2023-05-11T08:09:21;96036.31;;;11.61;90.93